createdAt,value
2018-05-23T00:00:44.318Z,15.70
2018-05-23T00:03:11.954Z,15.70
2018-05-23T00:05:39.463Z,15.70
2018-05-23T00:08:06.991Z,15.70
2018-05-23T00:10:35.326Z,15.70
2018-05-23T00:13:02.821Z,15.70
2018-05-23T00:15:30.473Z,15.70
2018-05-23T00:17:58.024Z,15.70
2018-05-23T00:20:25.597Z,15.70
2018-05-23T00:22:53.185Z,15.70
2018-05-23T00:25:20.737Z,15.70
2018-05-23T00:27:48.339Z,15.70
2018-05-23T00:47:21.325Z,15.70
2018-05-23T00:49:48.953Z,15.70
2018-05-23T00:52:17.302Z,15.70
2018-05-23T01:11:50.190Z,15.60
2018-05-23T01:14:17.725Z,15.50
2018-05-23T01:16:45.370Z,15.60
2018-05-23T01:19:12.889Z,15.60
2018-05-23T01:21:40.477Z,15.50
2018-05-23T01:24:08.094Z,15.50
2018-05-23T01:26:35.732Z,15.50
2018-05-23T01:29:03.551Z,15.50
2018-05-23T01:31:31.086Z,15.50
2018-05-23T01:33:58.812Z,15.50
2018-05-23T01:44:58.149Z,15.40
2018-05-23T01:47:25.728Z,15.40
2018-05-23T01:49:53.419Z,15.40
2018-05-23T01:52:20.952Z,15.40
2018-05-23T01:54:53.089Z,15.40
2018-05-23T01:57:21.399Z,15.40
2018-05-23T01:59:49.000Z,15.40
2018-05-23T02:02:16.559Z,15.40
2018-05-23T02:04:44.100Z,15.40
2018-05-23T02:07:11.750Z,15.40
2018-05-23T02:09:39.301Z,15.30
2018-05-23T02:12:06.858Z,15.30
2018-05-23T02:14:34.430Z,15.30
2018-05-23T02:17:01.949Z,15.30
2018-05-23T02:19:29.475Z,15.30
2018-05-23T02:21:57.128Z,15.30
2018-05-23T02:24:24.681Z,15.20
2018-05-23T02:26:52.202Z,15.20
2018-05-23T02:29:19.847Z,15.20
2018-05-23T02:31:47.348Z,15.20
2018-05-23T02:34:14.899Z,15.20
2018-05-23T02:53:46.754Z,15.20
2018-05-23T02:56:14.297Z,15.10
2018-05-23T02:58:41.808Z,15.10
2018-05-23T03:01:09.439Z,15.10
2018-05-23T03:03:37.051Z,15.00
2018-05-23T03:06:04.669Z,15.00
2018-05-23T03:08:32.953Z,15.00
2018-05-23T03:11:00.571Z,15.00
2018-05-23T03:13:28.110Z,15.00
2018-05-23T03:15:55.641Z,15.00
2018-05-23T03:18:23.251Z,15.00
2018-05-23T03:20:50.820Z,14.90
2018-05-23T03:23:18.342Z,14.90
2018-05-23T03:25:46.070Z,14.90
2018-05-23T03:28:14.355Z,14.80
2018-05-23T03:30:41.939Z,14.80
2018-05-23T03:33:09.549Z,14.80
2018-05-23T03:35:38.034Z,14.80
2018-05-23T03:38:05.603Z,14.80
2018-05-23T06:48:14.255Z,16.00
2018-05-23T07:08:09.676Z,16.50
2018-05-23T07:10:41.166Z,16.70
2018-05-23T07:13:09.105Z,16.70
2018-05-23T07:15:36.817Z,16.90
2018-05-23T07:18:04.634Z,16.90
2018-05-23T07:32:55.053Z,17.60
2018-05-23T08:05:05.918Z,18.50
2018-05-23T08:19:19.098Z,19.10
2018-05-23T08:39:06.879Z,20.40
2018-05-23T08:41:52.949Z,20.50
2018-05-23T08:44:24.593Z,20.80
2018-05-23T08:46:53.840Z,20.70
2018-05-23T08:49:34.996Z,20.90
2018-05-23T09:00:32.634Z,21.30
2018-05-23T09:06:10.826Z,21.20
2018-05-23T09:08:38.372Z,21.10
2018-05-23T09:11:05.925Z,21.00
2018-05-23T09:13:33.437Z,21.00
2018-05-23T09:16:00.985Z,21.00
2018-05-23T09:18:28.506Z,21.00
2018-05-23T09:20:56.157Z,21.10
2018-05-23T09:23:24.492Z,21.30
2018-05-23T09:25:52.080Z,21.30
2018-05-23T09:28:19.583Z,21.40
2018-05-23T09:30:47.165Z,21.60
2018-05-23T09:33:18.460Z,21.80
2018-05-23T09:35:49.793Z,21.80
2018-05-23T09:38:17.323Z,21.70
2018-05-23T09:40:45.806Z,21.70
2018-05-23T09:43:13.450Z,21.70
2018-05-23T09:45:41.932Z,21.50
2018-05-23T09:48:15.170Z,21.40
2018-05-23T09:50:43.647Z,21.20
2018-05-23T09:53:11.876Z,21.20
2018-05-23T09:55:54.033Z,21.20
2018-05-23T10:13:08.938Z,20.40
2018-05-23T10:30:29.413Z,19.50
2018-05-23T11:36:37.702Z,18.70
2018-05-23T11:57:00.327Z,19.00
2018-05-23T12:50:31.358Z,19.40
2018-05-23T13:04:44.136Z,19.70
2018-05-23T13:07:11.799Z,19.80
2018-05-23T13:09:40.505Z,19.90
2018-05-23T13:12:08.926Z,20.00
2018-05-23T14:31:07.884Z,21.50
2018-05-23T15:13:21.814Z,22.90
2018-05-23T15:15:49.542Z,23.20
2018-05-23T15:18:20.859Z,23.40
2018-05-23T15:20:50.318Z,23.70
2018-05-23T15:23:25.230Z,23.70
2018-05-23T15:25:59.745Z,23.80
2018-05-23T15:28:27.301Z,23.90
2018-05-23T15:30:55.638Z,23.90
2018-05-23T15:33:24.346Z,24.00
2018-05-23T15:35:51.889Z,24.10
2018-05-23T15:38:27.149Z,24.20
2018-05-23T15:43:29.954Z,24.30
2018-05-23T15:45:57.516Z,24.30
2018-05-23T15:54:22.878Z,23.90
2018-05-23T15:56:57.992Z,23.70
2018-05-23T15:59:42.449Z,23.60
2018-05-23T16:10:57.221Z,23.90
2018-05-23T16:31:00.101Z,24.80
2018-05-23T17:05:42.464Z,24.80
2018-05-23T17:32:13.163Z,24.00
2018-05-23T17:49:32.882Z,23.60
2018-05-23T17:52:21.904Z,23.50
2018-05-23T17:54:56.390Z,23.50
2018-05-23T17:57:23.978Z,23.40
2018-05-23T17:59:53.692Z,23.40
2018-05-23T18:02:22.210Z,23.30
2018-05-23T18:07:53.132Z,23.30
2018-05-23T18:13:23.804Z,23.20
2018-05-23T18:33:11.837Z,22.60
2018-05-23T18:35:39.591Z,22.50
2018-05-23T18:55:15.288Z,22.00
2018-05-23T19:12:21.193Z,21.60
2018-05-23T19:14:48.804Z,21.50
2018-05-23T19:17:16.315Z,21.50
2018-05-23T19:19:43.891Z,21.40
2018-05-23T19:22:11.394Z,21.40
2018-05-23T19:24:52.844Z,21.30
2018-05-23T19:27:20.365Z,21.20
2018-05-23T19:29:47.934Z,21.20
2018-05-23T19:32:15.412Z,21.20
2018-05-23T19:34:42.924Z,21.10
2018-05-23T19:37:10.414Z,21.00
2018-05-23T19:56:42.132Z,20.60
2018-05-23T19:59:09.745Z,20.60
2018-05-23T20:01:37.376Z,20.50
2018-05-23T20:04:04.929Z,20.50
2018-05-23T20:06:32.493Z,20.50
2018-05-23T20:09:00.009Z,20.40
2018-05-23T20:11:27.541Z,20.40
2018-05-23T20:13:55.185Z,20.40
2018-05-23T20:16:22.733Z,20.30
2018-05-23T20:24:40.940Z,20.20
2018-05-23T20:38:37.301Z,20.00
2018-05-23T20:41:06.057Z,19.80
2018-05-23T20:43:33.631Z,19.80
2018-05-23T20:46:01.128Z,19.80
2018-05-23T20:48:28.790Z,19.70
2018-05-23T20:50:56.360Z,19.70
2018-05-23T20:56:14.484Z,19.60
2018-05-23T20:58:42.927Z,19.50
2018-05-23T21:01:10.395Z,19.50
2018-05-23T21:03:38.116Z,19.40
2018-05-23T21:23:10.861Z,19.10
2018-05-23T21:25:38.396Z,19.10
2018-05-23T21:28:05.913Z,19.00
2018-05-23T21:30:34.222Z,19.00
2018-05-23T21:33:01.853Z,19.00
2018-05-23T21:35:30.168Z,19.00
2018-05-23T21:38:03.761Z,19.00
2018-05-23T21:40:31.310Z,19.00
2018-05-23T21:51:53.582Z,18.90
2018-05-23T21:54:21.279Z,18.90
2018-05-23T21:56:48.807Z,18.90
2018-05-23T21:59:16.382Z,18.80
2018-05-23T22:01:44.704Z,18.80
2018-05-23T22:04:12.220Z,18.70
2018-05-23T22:06:40.640Z,18.70
2018-05-23T22:09:08.199Z,18.70
2018-05-23T22:11:35.745Z,18.70
2018-05-23T22:14:03.361Z,18.70
2018-05-23T22:16:30.913Z,18.60
2018-05-23T22:18:58.424Z,18.60
2018-05-23T22:21:35.029Z,18.60
2018-05-23T22:24:02.616Z,18.60
2018-05-23T22:26:30.927Z,18.50
2018-05-23T22:28:59.073Z,18.50
2018-05-23T22:31:26.650Z,18.50
2018-05-23T22:33:54.254Z,18.40
2018-05-23T22:36:22.145Z,18.40
2018-05-23T22:38:50.015Z,18.40
2018-05-23T22:41:17.737Z,18.40
2018-05-23T22:43:45.295Z,18.30
2018-05-23T22:46:32.626Z,18.30
2018-05-23T22:49:00.192Z,18.20
2018-05-23T22:51:28.815Z,18.20
2018-05-23T22:53:56.415Z,18.20
2018-05-23T22:56:23.997Z,18.10
2018-05-23T22:59:09.926Z,18.10
2018-05-23T23:01:38.261Z,18.00
2018-05-23T23:04:05.788Z,18.00
2018-05-23T23:06:33.388Z,17.90
2018-05-23T23:09:01.519Z,17.80
2018-05-23T23:11:29.826Z,17.70
2018-05-23T23:13:57.380Z,17.70
2018-05-23T23:36:19.709Z,17.60
2018-05-23T23:38:47.405Z,17.50
2018-05-23T23:41:14.939Z,17.50
2018-05-23T23:43:59.481Z,17.50
2018-05-23T23:46:27.037Z,17.40
2018-05-23T23:48:54.573Z,17.40
2018-05-23T23:51:22.186Z,17.30
2018-05-23T23:53:53.553Z,17.30
2018-05-23T23:56:21.124Z,17.30
2018-05-23T23:58:48.687Z,17.30
